sensor_id;sensor_type;location;lat;lon;timestamp;temperature;humidity
38183;DHT22;23991;52.430;10.586;2023-07-29T00:01:44;20.20;81.10
38183;DHT22;23991;52.430;10.586;2023-07-29T00:04:09;20.20;81.20
38183;DHT22;23991;52.430;10.586;2023-07-29T00:06:35;20.10;81.30
38183;DHT22;23991;52.430;10.586;2023-07-29T00:09:01;20.10;81.40
38183;DHT22;23991;52.430;10.586;2023-07-29T00:11:27;20.10;81.50
38183;DHT22;23991;52.430;10.586;2023-07-29T00:13:57;20.00;81.50
38183;DHT22;23991;52.430;10.586;2023-07-29T00:16:23;20.00;81.60
38183;DHT22;23991;52.430;10.586;2023-07-29T00:18:49;20.00;81.80
38183;DHT22;23991;52.430;10.586;2023-07-29T00:21:15;20.00;81.90
38183;DHT22;23991;52.430;10.586;2023-07-29T00:23:40;20.00;82.10
38183;DHT22;23991;52.430;10.586;2023-07-29T00:26:06;20.00;82.20
38183;DHT22;23991;52.430;10.586;2023-07-29T00:28:31;20.00;82.40
38183;DHT22;23991;52.430;10.586;2023-07-29T00:30:57;20.00;82.50
38183;DHT22;23991;52.430;10.586;2023-07-29T00:33:23;19.90;82.50
38183;DHT22;23991;52.430;10.586;2023-07-29T00:35:48;19.90;82.60
38183;DHT22;23991;52.430;10.586;2023-07-29T00:38:14;19.90;82.60
38183;DHT22;23991;52.430;10.586;2023-07-29T00:40:39;19.90;82.70
38183;DHT22;23991;52.430;10.586;2023-07-29T00:43:05;19.90;82.80
38183;DHT22;23991;52.430;10.586;2023-07-29T00:45:32;19.90;82.90
38183;DHT22;23991;52.430;10.586;2023-07-29T00:47:59;19.90;83.00
38183;DHT22;23991;52.430;10.586;2023-07-29T00:50:25;19.90;83.10
38183;DHT22;23991;52.430;10.586;2023-07-29T00:52:53;19.90;83.30
38183;DHT22;23991;52.430;10.586;2023-07-29T00:55:19;19.90;83.30
38183;DHT22;23991;52.430;10.586;2023-07-29T00:57:45;19.90;83.40
38183;DHT22;23991;52.430;10.586;2023-07-29T01:00:14;19.90;83.50
38183;DHT22;23991;52.430;10.586;2023-07-29T01:02:39;19.80;83.70
38183;DHT22;23991;52.430;10.586;2023-07-29T01:05:06;19.80;83.70
38183;DHT22;23991;52.430;10.586;2023-07-29T01:10:37;19.80;83.70
38183;DHT22;23991;52.430;10.586;2023-07-29T01:16:15;19.80;83.70
38183;DHT22;23991;52.430;10.586;2023-07-29T01:18:43;19.80;83.70
38183;DHT22;23991;52.430;10.586;2023-07-29T01:21:13;19.80;83.90
38183;DHT22;23991;52.430;10.586;2023-07-29T01:23:39;19.80;84.10
38183;DHT22;23991;52.430;10.586;2023-07-29T01:26:05;19.80;84.10
38183;DHT22;23991;52.430;10.586;2023-07-29T01:28:30;19.80;84.20
38183;DHT22;23991;52.430;10.586;2023-07-29T01:33:59;19.70;84.20
38183;DHT22;23991;52.430;10.586;2023-07-29T01:36:28;19.70;84.40
38183;DHT22;23991;52.430;10.586;2023-07-29T01:38:55;19.70;84.40
38183;DHT22;23991;52.430;10.586;2023-07-29T01:41:21;19.70;84.40
38183;DHT22;23991;52.430;10.586;2023-07-29T01:43:48;19.70;84.50
38183;DHT22;23991;52.430;10.586;2023-07-29T01:46:14;19.70;84.40
38183;DHT22;23991;52.430;10.586;2023-07-29T01:48:40;19.70;84.30
38183;DHT22;23991;52.430;10.586;2023-07-29T01:51:07;19.70;84.30
38183;DHT22;23991;52.430;10.586;2023-07-29T01:53:33;19.70;84.20
38183;DHT22;23991;52.430;10.586;2023-07-29T01:55:58;19.70;84.20
38183;DHT22;23991;52.430;10.586;2023-07-29T01:58:24;19.60;84.20
38183;DHT22;23991;52.430;10.586;2023-07-29T02:00:50;19.60;84.20
38183;DHT22;23991;52.430;10.586;2023-07-29T02:03:19;19.60;84.10
38183;DHT22;23991;52.430;10.586;2023-07-29T02:05:44;19.60;84.20
38183;DHT22;23991;52.430;10.586;2023-07-29T02:08:11;19.60;84.30
38183;DHT22;23991;52.430;10.586;2023-07-29T02:10:37;19.50;84.30
38183;DHT22;23991;52.430;10.586;2023-07-29T02:13:03;19.50;84.30
38183;DHT22;23991;52.430;10.586;2023-07-29T02:15:29;19.50;84.40
38183;DHT22;23991;52.430;10.586;2023-07-29T02:17:54;19.50;84.50
38183;DHT22;23991;52.430;10.586;2023-07-29T02:20:29;19.50;84.60
38183;DHT22;23991;52.430;10.586;2023-07-29T02:22:54;19.50;84.60
38183;DHT22;23991;52.430;10.586;2023-07-29T02:25:20;19.50;84.50
38183;DHT22;23991;52.430;10.586;2023-07-29T02:27:46;19.50;84.50
38183;DHT22;23991;52.430;10.586;2023-07-29T02:30:11;19.50;84.40
38183;DHT22;23991;52.430;10.586;2023-07-29T02:32:38;19.50;84.40
38183;DHT22;23991;52.430;10.586;2023-07-29T02:35:03;19.40;84.40
38183;DHT22;23991;52.430;10.586;2023-07-29T02:37:30;19.40;84.40
38183;DHT22;23991;52.430;10.586;2023-07-29T02:39:55;19.40;84.40
38183;DHT22;23991;52.430;10.586;2023-07-29T02:42:21;19.40;84.50
38183;DHT22;23991;52.430;10.586;2023-07-29T02:44:47;19.40;84.40
38183;DHT22;23991;52.430;10.586;2023-07-29T02:47:12;19.40;84.30
38183;DHT22;23991;52.430;10.586;2023-07-29T02:49:41;19.30;84.30
38183;DHT22;23991;52.430;10.586;2023-07-29T02:52:06;19.30;84.20
38183;DHT22;23991;52.430;10.586;2023-07-29T02:54:35;19.30;84.20
38183;DHT22;23991;52.430;10.586;2023-07-29T02:57:00;19.30;84.30
38183;DHT22;23991;52.430;10.586;2023-07-29T02:59:26;19.30;84.30
38183;DHT22;23991;52.430;10.586;2023-07-29T03:01:52;19.30;84.50
38183;DHT22;23991;52.430;10.586;2023-07-29T03:04:18;19.30;84.40
38183;DHT22;23991;52.430;10.586;2023-07-29T03:06:44;19.30;84.50
38183;DHT22;23991;52.430;10.586;2023-07-29T03:09:10;19.20;84.60
38183;DHT22;23991;52.430;10.586;2023-07-29T03:11:35;19.20;84.80
38183;DHT22;23991;52.430;10.586;2023-07-29T03:14:01;19.20;84.80
38183;DHT22;23991;52.430;10.586;2023-07-29T03:16:27;19.30;84.80
38183;DHT22;23991;52.430;10.586;2023-07-29T03:18:52;19.20;85.00
38183;DHT22;23991;52.430;10.586;2023-07-29T03:21:18;19.20;85.00
38183;DHT22;23991;52.430;10.586;2023-07-29T03:23:43;19.20;85.00
38183;DHT22;23991;52.430;10.586;2023-07-29T03:26:09;19.20;85.10
38183;DHT22;23991;52.430;10.586;2023-07-29T03:28:42;19.20;85.20
38183;DHT22;23991;52.430;10.586;2023-07-29T03:31:08;19.20;85.40
38183;DHT22;23991;52.430;10.586;2023-07-29T03:33:34;19.20;85.40
38183;DHT22;23991;52.430;10.586;2023-07-29T03:36:00;19.20;85.50
38183;DHT22;23991;52.430;10.586;2023-07-29T03:38:25;19.20;85.60
38183;DHT22;23991;52.430;10.586;2023-07-29T03:40:51;19.20;85.70
38183;DHT22;23991;52.430;10.586;2023-07-29T03:43:17;19.20;85.70
38183;DHT22;23991;52.430;10.586;2023-07-29T03:45:42;19.20;85.80
38183;DHT22;23991;52.430;10.586;2023-07-29T03:48:08;19.20;85.80
38183;DHT22;23991;52.430;10.586;2023-07-29T03:50:35;19.20;85.90
38183;DHT22;23991;52.430;10.586;2023-07-29T03:53:01;19.20;85.90
38183;DHT22;23991;52.430;10.586;2023-07-29T03:55:27;19.20;85.90
38183;DHT22;23991;52.430;10.586;2023-07-29T03:57:52;19.20;85.90
38183;DHT22;23991;52.430;10.586;2023-07-29T04:00:18;19.20;85.90
38183;DHT22;23991;52.430;10.586;2023-07-29T04:02:44;19.30;86.00
38183;DHT22;23991;52.430;10.586;2023-07-29T04:05:11;19.30;85.90
38183;DHT22;23991;52.430;10.586;2023-07-29T04:07:36;19.30;85.80
38183;DHT22;23991;52.430;10.586;2023-07-29T04:10:02;19.30;85.70
38183;DHT22;23991;52.430;10.586;2023-07-29T04:12:28;19.50;85.40
38183;DHT22;23991;52.430;10.586;2023-07-29T04:14:53;19.50;85.30
38183;DHT22;23991;52.430;10.586;2023-07-29T04:17:19;19.50;85.30
38183;DHT22;23991;52.430;10.586;2023-07-29T04:19:45;19.70;85.00
38183;DHT22;23991;52.430;10.586;2023-07-29T04:22:10;19.70;84.80
38183;DHT22;23991;52.430;10.586;2023-07-29T04:24:36;19.80;84.60
38183;DHT22;23991;52.430;10.586;2023-07-29T04:27:02;19.80;84.40
38183;DHT22;23991;52.430;10.586;2023-07-29T04:29:28;19.90;84.30
38183;DHT22;23991;52.430;10.586;2023-07-29T04:31:56;20.00;84.00
38183;DHT22;23991;52.430;10.586;2023-07-29T04:34:22;20.00;83.90
38183;DHT22;23991;52.430;10.586;2023-07-29T04:36:47;20.10;83.80
38183;DHT22;23991;52.430;10.586;2023-07-29T04:39:13;20.20;83.60
38183;DHT22;23991;52.430;10.586;2023-07-29T04:41:39;20.20;83.50
38183;DHT22;23991;52.430;10.586;2023-07-29T04:44:04;20.30;83.20
38183;DHT22;23991;52.430;10.586;2023-07-29T04:46:30;20.30;83.20
38183;DHT22;23991;52.430;10.586;2023-07-29T04:48:55;20.50;82.90
38183;DHT22;23991;52.430;10.586;2023-07-29T04:51:21;20.60;82.70
38183;DHT22;23991;52.430;10.586;2023-07-29T04:53:47;20.70;82.40
38183;DHT22;23991;52.430;10.586;2023-07-29T04:56:12;20.70;82.20
38183;DHT22;23991;52.430;10.586;2023-07-29T04:58:41;20.80;81.90
38183;DHT22;23991;52.430;10.586;2023-07-29T05:01:06;20.90;81.70
38183;DHT22;23991;52.430;10.586;2023-07-29T05:03:32;21.10;81.30
38183;DHT22;23991;52.430;10.586;2023-07-29T05:05:59;21.10;80.90
38183;DHT22;23991;52.430;10.586;2023-07-29T05:08:26;21.20;80.90
38183;DHT22;23991;52.430;10.586;2023-07-29T05:10:52;21.30;80.70
38183;DHT22;23991;52.430;10.586;2023-07-29T05:13:19;21.30;80.20
38183;DHT22;23991;52.430;10.586;2023-07-29T05:15:45;21.50;79.70
38183;DHT22;23991;52.430;10.586;2023-07-29T05:18:12;21.60;79.40
38183;DHT22;23991;52.430;10.586;2023-07-29T05:20:37;21.70;79.50
38183;DHT22;23991;52.430;10.586;2023-07-29T05:23:03;21.80;79.00
38183;DHT22;23991;52.430;10.586;2023-07-29T05:25:29;21.80;78.90
38183;DHT22;23991;52.430;10.586;2023-07-29T05:27:54;22.00;78.50
38183;DHT22;23991;52.430;10.586;2023-07-29T05:30:20;22.00;78.50
38183;DHT22;23991;52.430;10.586;2023-07-29T05:32:46;22.00;78.40
38183;DHT22;23991;52.430;10.586;2023-07-29T05:35:11;22.20;77.90
38183;DHT22;23991;52.430;10.586;2023-07-29T05:37:40;22.30;77.20
38183;DHT22;23991;52.430;10.586;2023-07-29T05:40:07;22.40;76.70
38183;DHT22;23991;52.430;10.586;2023-07-29T05:42:33;22.50;76.50
38183;DHT22;23991;52.430;10.586;2023-07-29T05:44:59;22.60;76.30
38183;DHT22;23991;52.430;10.586;2023-07-29T05:47:25;22.80;75.80
38183;DHT22;23991;52.430;10.586;2023-07-29T05:49:50;22.80;75.80
38183;DHT22;23991;52.430;10.586;2023-07-29T05:52:16;22.90;75.60
38183;DHT22;23991;52.430;10.586;2023-07-29T05:54:42;22.80;75.60
38183;DHT22;23991;52.430;10.586;2023-07-29T05:57:13;22.90;75.40
38183;DHT22;23991;52.430;10.586;2023-07-29T05:59:39;23.00;75.30
38183;DHT22;23991;52.430;10.586;2023-07-29T06:02:04;23.20;74.70
38183;DHT22;23991;52.430;10.586;2023-07-29T06:04:30;23.30;74.30
38183;DHT22;23991;52.430;10.586;2023-07-29T06:06:56;23.20;74.00
38183;DHT22;23991;52.430;10.586;2023-07-29T06:09:24;23.30;73.80
38183;DHT22;23991;52.430;10.586;2023-07-29T06:11:52;23.20;73.90
38183;DHT22;23991;52.430;10.586;2023-07-29T06:14:18;23.30;73.90
38183;DHT22;23991;52.430;10.586;2023-07-29T06:16:43;23.20;73.70
38183;DHT22;23991;52.430;10.586;2023-07-29T06:19:09;23.20;73.90
38183;DHT22;23991;52.430;10.586;2023-07-29T06:21:35;23.30;73.60
38183;DHT22;23991;52.430;10.586;2023-07-29T06:24:01;23.30;73.40
38183;DHT22;23991;52.430;10.586;2023-07-29T06:26:26;23.30;73.90
38183;DHT22;23991;52.430;10.586;2023-07-29T06:28:52;23.20;74.10
38183;DHT22;23991;52.430;10.586;2023-07-29T06:31:17;23.20;73.90
38183;DHT22;23991;52.430;10.586;2023-07-29T06:33:43;23.10;74.30
38183;DHT22;23991;52.430;10.586;2023-07-29T06:36:09;23.20;74.10
38183;DHT22;23991;52.430;10.586;2023-07-29T06:38:34;23.10;74.20
38183;DHT22;23991;52.430;10.586;2023-07-29T06:41:00;23.20;74.10
38183;DHT22;23991;52.430;10.586;2023-07-29T06:43:25;23.20;74.20
38183;DHT22;23991;52.430;10.586;2023-07-29T06:45:51;23.30;74.00
38183;DHT22;23991;52.430;10.586;2023-07-29T06:48:20;23.30;73.40
38183;DHT22;23991;52.430;10.586;2023-07-29T06:50:46;23.40;73.30
38183;DHT22;23991;52.430;10.586;2023-07-29T06:53:11;23.30;73.70
38183;DHT22;23991;52.430;10.586;2023-07-29T06:55:37;23.30;74.30
38183;DHT22;23991;52.430;10.586;2023-07-29T06:58:03;23.10;74.50
38183;DHT22;23991;52.430;10.586;2023-07-29T07:00:28;22.90;74.70
38183;DHT22;23991;52.430;10.586;2023-07-29T07:02:54;22.80;74.70
38183;DHT22;23991;52.430;10.586;2023-07-29T07:05:19;22.50;74.80
38183;DHT22;23991;52.430;10.586;2023-07-29T07:07:47;22.30;75.20
38183;DHT22;23991;52.430;10.586;2023-07-29T07:10:14;22.30;74.60
38183;DHT22;23991;52.430;10.586;2023-07-29T07:12:39;22.30;74.80
38183;DHT22;23991;52.430;10.586;2023-07-29T07:15:05;22.40;74.90
38183;DHT22;23991;52.430;10.586;2023-07-29T07:17:31;22.60;74.10
38183;DHT22;23991;52.430;10.586;2023-07-29T07:19:57;22.80;73.80
38183;DHT22;23991;52.430;10.586;2023-07-29T07:22:22;22.80;73.00
38183;DHT22;23991;52.430;10.586;2023-07-29T07:24:49;23.00;72.00
38183;DHT22;23991;52.430;10.586;2023-07-29T07:27:14;23.00;71.70
38183;DHT22;23991;52.430;10.586;2023-07-29T07:29:43;23.00;71.50
38183;DHT22;23991;52.430;10.586;2023-07-29T07:32:08;22.90;71.30
38183;DHT22;23991;52.430;10.586;2023-07-29T07:34:34;22.80;71.50
38183;DHT22;23991;52.430;10.586;2023-07-29T07:37:00;22.80;71.60
38183;DHT22;23991;52.430;10.586;2023-07-29T07:39:26;22.80;71.60
38183;DHT22;23991;52.430;10.586;2023-07-29T07:41:51;22.80;71.60
38183;DHT22;23991;52.430;10.586;2023-07-29T07:44:17;22.80;71.30
38183;DHT22;23991;52.430;10.586;2023-07-29T07:46:45;22.80;71.40
38183;DHT22;23991;52.430;10.586;2023-07-29T07:49:10;22.90;71.00
38183;DHT22;23991;52.430;10.586;2023-07-29T07:51:36;22.90;71.00
38183;DHT22;23991;52.430;10.586;2023-07-29T07:54:01;23.00;70.70
38183;DHT22;23991;52.430;10.586;2023-07-29T07:56:27;23.10;70.60
38183;DHT22;23991;52.430;10.586;2023-07-29T07:58:52;23.30;70.50
38183;DHT22;23991;52.430;10.586;2023-07-29T08:01:18;23.30;70.40
38183;DHT22;23991;52.430;10.586;2023-07-29T08:03:43;23.20;70.90
38183;DHT22;23991;52.430;10.586;2023-07-29T08:06:09;23.30;71.10
38183;DHT22;23991;52.430;10.586;2023-07-29T08:08:34;23.20;71.60
38183;DHT22;23991;52.430;10.586;2023-07-29T08:11:03;23.30;71.20
38183;DHT22;23991;52.430;10.586;2023-07-29T08:13:29;23.30;71.40
38183;DHT22;23991;52.430;10.586;2023-07-29T08:15:54;23.40;71.00
38183;DHT22;23991;52.430;10.586;2023-07-29T08:18:20;23.50;70.90
38183;DHT22;23991;52.430;10.586;2023-07-29T08:20:57;23.70;70.60
38183;DHT22;23991;52.430;10.586;2023-07-29T08:23:24;23.80;70.20
38183;DHT22;23991;52.430;10.586;2023-07-29T08:25:54;24.00;70.20
38183;DHT22;23991;52.430;10.586;2023-07-29T08:28:22;23.90;70.20
38183;DHT22;23991;52.430;10.586;2023-07-29T08:30:48;23.90;70.30
38183;DHT22;23991;52.430;10.586;2023-07-29T08:33:14;23.90;70.40
38183;DHT22;23991;52.430;10.586;2023-07-29T08:35:40;24.10;70.20
38183;DHT22;23991;52.430;10.586;2023-07-29T08:38:05;24.20;70.20
38183;DHT22;23991;52.430;10.586;2023-07-29T08:40:32;24.20;70.80
38183;DHT22;23991;52.430;10.586;2023-07-29T08:43:03;24.10;70.90
38183;DHT22;23991;52.430;10.586;2023-07-29T08:45:32;24.20;71.50
38183;DHT22;23991;52.430;10.586;2023-07-29T08:47:59;24.40;71.40
38183;DHT22;23991;52.430;10.586;2023-07-29T08:50:34;24.70;71.50
38183;DHT22;23991;52.430;10.586;2023-07-29T08:53:01;24.70;70.80
38183;DHT22;23991;52.430;10.586;2023-07-29T08:55:29;24.80;70.50
38183;DHT22;23991;52.430;10.586;2023-07-29T08:57:55;24.90;70.60
38183;DHT22;23991;52.430;10.586;2023-07-29T09:00:21;25.10;70.30
38183;DHT22;23991;52.430;10.586;2023-07-29T09:02:47;25.60;69.90
38183;DHT22;23991;52.430;10.586;2023-07-29T09:05:12;25.80;68.80
38183;DHT22;23991;52.430;10.586;2023-07-29T09:07:38;26.10;67.80
38183;DHT22;23991;52.430;10.586;2023-07-29T09:10:08;26.40;67.20
38183;DHT22;23991;52.430;10.586;2023-07-29T09:12:36;26.50;67.00
38183;DHT22;23991;52.430;10.586;2023-07-29T09:15:02;26.40;66.10
38183;DHT22;23991;52.430;10.586;2023-07-29T09:17:31;26.50;65.30
38183;DHT22;23991;52.430;10.586;2023-07-29T09:19:57;26.60;65.40
38183;DHT22;23991;52.430;10.586;2023-07-29T09:22:24;26.50;65.40
38183;DHT22;23991;52.430;10.586;2023-07-29T09:24:51;26.60;65.30
38183;DHT22;23991;52.430;10.586;2023-07-29T09:27:27;26.70;65.00
38183;DHT22;23991;52.430;10.586;2023-07-29T09:29:55;26.80;64.70
38183;DHT22;23991;52.430;10.586;2023-07-29T09:32:22;26.70;64.70
38183;DHT22;23991;52.430;10.586;2023-07-29T09:34:48;26.70;63.90
38183;DHT22;23991;52.430;10.586;2023-07-29T09:37:20;26.70;64.50
38183;DHT22;23991;52.430;10.586;2023-07-29T09:39:47;26.80;64.80
38183;DHT22;23991;52.430;10.586;2023-07-29T09:42:23;26.90;64.60
38183;DHT22;23991;52.430;10.586;2023-07-29T09:44:49;27.00;63.70
38183;DHT22;23991;52.430;10.586;2023-07-29T09:47:23;27.20;64.00
38183;DHT22;23991;52.430;10.586;2023-07-29T09:49:50;27.50;63.10
38183;DHT22;23991;52.430;10.586;2023-07-29T09:52:17;27.70;62.80
38183;DHT22;23991;52.430;10.586;2023-07-29T09:54:46;28.20;61.90
38183;DHT22;23991;52.430;10.586;2023-07-29T09:57:17;28.40;61.00
38183;DHT22;23991;52.430;10.586;2023-07-29T09:59:45;28.50;60.60
38183;DHT22;23991;52.430;10.586;2023-07-29T10:02:18;28.60;60.30
38183;DHT22;23991;52.430;10.586;2023-07-29T10:04:45;28.40;59.90
38183;DHT22;23991;52.430;10.586;2023-07-29T10:07:12;28.20;60.80
38183;DHT22;23991;52.430;10.586;2023-07-29T10:09:39;28.10;61.20
38183;DHT22;23991;52.430;10.586;2023-07-29T10:12:06;28.20;60.90
38183;DHT22;23991;52.430;10.586;2023-07-29T10:42:36;27.20;64.00
38183;DHT22;23991;52.430;10.586;2023-07-29T10:45:18;28.20;62.20
38183;DHT22;23991;52.430;10.586;2023-07-29T10:47:44;29.20;59.30
38183;DHT22;23991;52.430;10.586;2023-07-29T10:50:19;29.80;58.00
38183;DHT22;23991;52.430;10.586;2023-07-29T10:52:52;30.20;56.70
38183;DHT22;23991;52.430;10.586;2023-07-29T10:55:30;30.70;55.60
38183;DHT22;23991;52.430;10.586;2023-07-29T10:58:14;31.00;54.10
38183;DHT22;23991;52.430;10.586;2023-07-29T11:00:44;30.90;54.60
38183;DHT22;23991;52.430;10.586;2023-07-29T11:03:13;31.00;53.80
38183;DHT22;23991;52.430;10.586;2023-07-29T11:05:52;30.80;54.70
38183;DHT22;23991;52.430;10.586;2023-07-29T11:08:23;30.70;54.90
38183;DHT22;23991;52.430;10.586;2023-07-29T11:13:27;30.60;56.30
38183;DHT22;23991;52.430;10.586;2023-07-29T11:15:54;31.00;53.40
38183;DHT22;23991;52.430;10.586;2023-07-29T11:18:20;31.50;53.10
38183;DHT22;23991;52.430;10.586;2023-07-29T11:20:46;32.20;52.80
38183;DHT22;23991;52.430;10.586;2023-07-29T11:23:13;32.50;51.30
38183;DHT22;23991;52.430;10.586;2023-07-29T11:25:39;33.20;48.30
38183;DHT22;23991;52.430;10.586;2023-07-29T11:28:04;33.70;47.10
38183;DHT22;23991;52.430;10.586;2023-07-29T11:30:30;34.10;46.70
38183;DHT22;23991;52.430;10.586;2023-07-29T11:32:58;34.80;44.50
38183;DHT22;23991;52.430;10.586;2023-07-29T11:35:24;34.90;43.30
38183;DHT22;23991;52.430;10.586;2023-07-29T11:37:51;35.10;41.80
38183;DHT22;23991;52.430;10.586;2023-07-29T11:40:18;35.10;41.90
38183;DHT22;23991;52.430;10.586;2023-07-29T11:42:48;34.90;41.50
38183;DHT22;23991;52.430;10.586;2023-07-29T12:16:29;36.40;40.60
38183;DHT22;23991;52.430;10.586;2023-07-29T12:19:02;37.00;39.00
38183;DHT22;23991;52.430;10.586;2023-07-29T12:21:30;37.10;38.70
38183;DHT22;23991;52.430;10.586;2023-07-29T12:23:56;37.20;37.90
38183;DHT22;23991;52.430;10.586;2023-07-29T12:26:27;36.70;36.20
38183;DHT22;23991;52.430;10.586;2023-07-29T12:28:54;36.10;37.70
38183;DHT22;23991;52.430;10.586;2023-07-29T12:31:21;35.90;37.90
38183;DHT22;23991;52.430;10.586;2023-07-29T12:33:55;36.00;39.40
38183;DHT22;23991;52.430;10.586;2023-07-29T12:36:21;36.20;36.90
38183;DHT22;23991;52.430;10.586;2023-07-29T12:38:46;36.10;36.90
38183;DHT22;23991;52.430;10.586;2023-07-29T12:41:13;36.10;37.00
38183;DHT22;23991;52.430;10.586;2023-07-29T12:43:40;35.80;36.00
38183;DHT22;23991;52.430;10.586;2023-07-29T12:46:11;35.40;36.50
38183;DHT22;23991;52.430;10.586;2023-07-29T12:48:40;35.20;37.10
38183;DHT22;23991;52.430;10.586;2023-07-29T12:51:09;35.10;37.70
38183;DHT22;23991;52.430;10.586;2023-07-29T12:53:40;35.20;38.50
38183;DHT22;23991;52.430;10.586;2023-07-29T12:56:07;35.10;38.70
38183;DHT22;23991;52.430;10.586;2023-07-29T12:58:33;34.90;39.50
38183;DHT22;23991;52.430;10.586;2023-07-29T13:00:59;35.20;39.30
38183;DHT22;23991;52.430;10.586;2023-07-29T13:03:25;35.20;37.70
38183;DHT22;23991;52.430;10.586;2023-07-29T13:05:52;35.20;37.70
38183;DHT22;23991;52.430;10.586;2023-07-29T13:08:17;35.50;36.30
38183;DHT22;23991;52.430;10.586;2023-07-29T13:10:43;35.60;35.70
38183;DHT22;23991;52.430;10.586;2023-07-29T13:13:08;35.60;33.40
38183;DHT22;23991;52.430;10.586;2023-07-29T13:15:36;35.60;33.60
38183;DHT22;23991;52.430;10.586;2023-07-29T13:18:03;36.10;33.10
38183;DHT22;23991;52.430;10.586;2023-07-29T13:20:32;36.30;32.10
38183;DHT22;23991;52.430;10.586;2023-07-29T13:22:59;36.30;31.40
38183;DHT22;23991;52.430;10.586;2023-07-29T13:25:25;36.30;32.10
38183;DHT22;23991;52.430;10.586;2023-07-29T13:27:51;35.70;31.40
38183;DHT22;23991;52.430;10.586;2023-07-29T13:30:16;36.10;31.10
38183;DHT22;23991;52.430;10.586;2023-07-29T13:32:43;36.10;31.10
38183;DHT22;23991;52.430;10.586;2023-07-29T13:35:09;35.90;30.90
38183;DHT22;23991;52.430;10.586;2023-07-29T13:37:35;35.40;31.10
38183;DHT22;23991;52.430;10.586;2023-07-29T13:40:00;35.30;32.10
38183;DHT22;23991;52.430;10.586;2023-07-29T13:42:27;35.30;31.20
38183;DHT22;23991;52.430;10.586;2023-07-29T13:44:52;35.20;31.40
38183;DHT22;23991;52.430;10.586;2023-07-29T13:47:18;34.80;32.60
38183;DHT22;23991;52.430;10.586;2023-07-29T13:49:43;34.70;33.00
38183;DHT22;23991;52.430;10.586;2023-07-29T13:52:09;34.90;33.30
38183;DHT22;23991;52.430;10.586;2023-07-29T13:54:36;35.00;32.30
38183;DHT22;23991;52.430;10.586;2023-07-29T13:57:04;35.10;32.60
38183;DHT22;23991;52.430;10.586;2023-07-29T13:59:33;35.20;34.10
38183;DHT22;23991;52.430;10.586;2023-07-29T14:01:59;35.20;32.30
38183;DHT22;23991;52.430;10.586;2023-07-29T14:04:24;35.30;32.90
38183;DHT22;23991;52.430;10.586;2023-07-29T14:06:50;35.30;32.60
38183;DHT22;23991;52.430;10.586;2023-07-29T14:09:16;35.40;32.10
38183;DHT22;23991;52.430;10.586;2023-07-29T14:11:43;35.40;32.00
38183;DHT22;23991;52.430;10.586;2023-07-29T14:14:09;35.60;32.20
38183;DHT22;23991;52.430;10.586;2023-07-29T14:16:35;35.50;31.20
38183;DHT22;23991;52.430;10.586;2023-07-29T14:19:01;35.60;31.90
38183;DHT22;23991;52.430;10.586;2023-07-29T14:21:27;35.70;31.50
38183;DHT22;23991;52.430;10.586;2023-07-29T14:23:55;36.00;30.90
38183;DHT22;23991;52.430;10.586;2023-07-29T14:26:21;36.00;30.20
38183;DHT22;23991;52.430;10.586;2023-07-29T14:28:52;36.10;30.80
38183;DHT22;23991;52.430;10.586;2023-07-29T14:31:36;36.20;29.60
38183;DHT22;23991;52.430;10.586;2023-07-29T14:34:06;36.20;29.10
38183;DHT22;23991;52.430;10.586;2023-07-29T14:36:31;36.00;29.10
38183;DHT22;23991;52.430;10.586;2023-07-29T14:38:57;36.10;29.00
38183;DHT22;23991;52.430;10.586;2023-07-29T14:41:26;36.30;28.50
38183;DHT22;23991;52.430;10.586;2023-07-29T14:43:56;36.50;28.40
38183;DHT22;23991;52.430;10.586;2023-07-29T14:46:23;36.60;28.10
38183;DHT22;23991;52.430;10.586;2023-07-29T14:48:48;36.60;28.10
38183;DHT22;23991;52.430;10.586;2023-07-29T14:51:14;36.70;27.90
38183;DHT22;23991;52.430;10.586;2023-07-29T14:53:40;36.40;28.30
38183;DHT22;23991;52.430;10.586;2023-07-29T14:56:05;36.60;27.90
38183;DHT22;23991;52.430;10.586;2023-07-29T14:58:31;36.60;28.00
38183;DHT22;23991;52.430;10.586;2023-07-29T15:00:57;36.80;29.10
38183;DHT22;23991;52.430;10.586;2023-07-29T15:03:24;37.10;27.80
38183;DHT22;23991;52.430;10.586;2023-07-29T15:05:53;37.10;28.20
38183;DHT22;23991;52.430;10.586;2023-07-29T15:08:21;37.10;27.90
38183;DHT22;23991;52.430;10.586;2023-07-29T15:10:47;36.80;27.90
38183;DHT22;23991;52.430;10.586;2023-07-29T15:13:13;36.40;28.60
38183;DHT22;23991;52.430;10.586;2023-07-29T15:15:45;36.20;28.70
38183;DHT22;23991;52.430;10.586;2023-07-29T15:18:12;36.20;29.10
38183;DHT22;23991;52.430;10.586;2023-07-29T15:20:37;36.20;28.40
38183;DHT22;23991;52.430;10.586;2023-07-29T15:23:03;36.00;28.30
38183;DHT22;23991;52.430;10.586;2023-07-29T15:25:30;36.10;28.70
38183;DHT22;23991;52.430;10.586;2023-07-29T15:27:56;36.20;28.60
38183;DHT22;23991;52.430;10.586;2023-07-29T15:30:23;36.20;28.70
38183;DHT22;23991;52.430;10.586;2023-07-29T15:32:51;36.00;28.20
38183;DHT22;23991;52.430;10.586;2023-07-29T15:35:16;36.20;28.40
38183;DHT22;23991;52.430;10.586;2023-07-29T15:37:43;36.20;28.40
38183;DHT22;23991;52.430;10.586;2023-07-29T15:40:11;36.20;28.80
38183;DHT22;23991;52.430;10.586;2023-07-29T15:42:37;36.10;28.40
38183;DHT22;23991;52.430;10.586;2023-07-29T15:45:03;35.70;28.80
38183;DHT22;23991;52.430;10.586;2023-07-29T15:47:29;35.50;29.40
38183;DHT22;23991;52.430;10.586;2023-07-29T15:49:55;35.20;30.10
38183;DHT22;23991;52.430;10.586;2023-07-29T15:52:22;34.80;30.60
38183;DHT22;23991;52.430;10.586;2023-07-29T15:54:48;34.70;30.90
38183;DHT22;23991;52.430;10.586;2023-07-29T15:57:18;34.90;31.30
38183;DHT22;23991;52.430;10.586;2023-07-29T15:59:44;35.00;30.10
38183;DHT22;23991;52.430;10.586;2023-07-29T16:02:13;34.70;31.40
38183;DHT22;23991;52.430;10.586;2023-07-29T16:04:39;34.90;31.30
38183;DHT22;23991;52.430;10.586;2023-07-29T16:07:05;35.20;31.10
38183;DHT22;23991;52.430;10.586;2023-07-29T16:09:31;35.40;30.20
38183;DHT22;23991;52.430;10.586;2023-07-29T16:11:57;35.30;29.90
38183;DHT22;23991;52.430;10.586;2023-07-29T16:14:22;35.10;30.60
38183;DHT22;23991;52.430;10.586;2023-07-29T16:16:48;34.80;31.00
38183;DHT22;23991;52.430;10.586;2023-07-29T16:19:26;34.40;30.80
38183;DHT22;23991;52.430;10.586;2023-07-29T16:21:53;33.70;31.90
38183;DHT22;23991;52.430;10.586;2023-07-29T16:24:18;33.40;33.10